sensor_id;sensor_type;location;lat;lon;timestamp;P1;durP1;ratioP1;P2;durP2;ratioP2
49828;SDS011;35723;51.194;5.112;2023-09-19T00:01:38;16.90;;;3.08;;
49828;SDS011;35723;51.194;5.112;2023-09-19T00:04:05;18.38;;;2.70;;
49828;SDS011;35723;51.194;5.112;2023-09-19T00:06:38;17.23;;;2.90;;
49828;SDS011;35723;51.194;5.112;2023-09-19T00:09:04;20.50;;;3.30;;
49828;SDS011;35723;51.194;5.112;2023-09-19T00:11:35;17.33;;;2.90;;
49828;SDS011;35723;51.194;5.112;2023-09-19T00:14:00;21.60;;;3.60;;
49828;SDS011;35723;51.194;5.112;2023-09-19T00:16:26;14.70;;;2.70;;
49828;SDS011;35723;51.194;5.112;2023-09-19T00:18:52;16.50;;;3.00;;
49828;SDS011;35723;51.194;5.112;2023-09-19T00:21:18;16.98;;;3.05;;
49828;SDS011;35723;51.194;5.112;2023-09-19T00:23:44;18.08;;;2.92;;
49828;SDS011;35723;51.194;5.112;2023-09-19T00:26:10;19.63;;;2.95;;
49828;SDS011;35723;51.194;5.112;2023-09-19T00:28:35;20.15;;;3.22;;
49828;SDS011;35723;51.194;5.112;2023-09-19T00:31:10;21.65;;;3.50;;
49828;SDS011;35723;51.194;5.112;2023-09-19T00:33:36;17.35;;;3.05;;
49828;SDS011;35723;51.194;5.112;2023-09-19T00:36:02;17.15;;;3.15;;
49828;SDS011;35723;51.194;5.112;2023-09-19T00:38:30;17.20;;;2.90;;
49828;SDS011;35723;51.194;5.112;2023-09-19T00:40:57;19.40;;;3.20;;
49828;SDS011;35723;51.194;5.112;2023-09-19T00:43:22;20.08;;;2.72;;
49828;SDS011;35723;51.194;5.112;2023-09-19T00:45:50;20.27;;;3.13;;
49828;SDS011;35723;51.194;5.112;2023-09-19T00:48:18;16.90;;;3.08;;
49828;SDS011;35723;51.194;5.112;2023-09-19T00:50:45;21.58;;;3.58;;
49828;SDS011;35723;51.194;5.112;2023-09-19T00:53:13;22.20;;;3.65;;
49828;SDS011;35723;51.194;5.112;2023-09-19T00:55:43;17.05;;;3.53;;
49828;SDS011;35723;51.194;5.112;2023-09-19T00:58:10;17.52;;;2.90;;
49828;SDS011;35723;51.194;5.112;2023-09-19T01:00:36;15.00;;;2.70;;
49828;SDS011;35723;51.194;5.112;2023-09-19T01:03:02;14.82;;;3.03;;
49828;SDS011;35723;51.194;5.112;2023-09-19T01:05:28;19.83;;;3.35;;
49828;SDS011;35723;51.194;5.112;2023-09-19T01:07:54;14.65;;;3.13;;
49828;SDS011;35723;51.194;5.112;2023-09-19T01:10:20;23.05;;;3.20;;
49828;SDS011;35723;51.194;5.112;2023-09-19T01:17:57;13.68;;;2.75;;
49828;SDS011;35723;51.194;5.112;2023-09-19T01:20:52;15.63;;;3.08;;
49828;SDS011;35723;51.194;5.112;2023-09-19T01:23:41;15.80;;;2.83;;
49828;SDS011;35723;51.194;5.112;2023-09-19T01:26:30;14.57;;;2.80;;
49828;SDS011;35723;51.194;5.112;2023-09-19T01:29:23;14.77;;;3.10;;
49828;SDS011;35723;51.194;5.112;2023-09-19T01:32:03;16.42;;;3.10;;
49828;SDS011;35723;51.194;5.112;2023-09-19T01:37:29;17.10;;;3.03;;
49828;SDS011;35723;51.194;5.112;2023-09-19T01:40:04;16.92;;;2.78;;
49828;SDS011;35723;51.194;5.112;2023-09-19T01:47:53;16.42;;;2.70;;
49828;SDS011;35723;51.194;5.112;2023-09-19T01:52:59;14.43;;;2.67;;
49828;SDS011;35723;51.194;5.112;2023-09-19T01:55:29;14.15;;;2.55;;
49828;SDS011;35723;51.194;5.112;2023-09-19T01:58:04;15.93;;;2.63;;
49828;SDS011;35723;51.194;5.112;2023-09-19T02:00:33;14.23;;;2.57;;
49828;SDS011;35723;51.194;5.112;2023-09-19T02:03:02;15.75;;;2.80;;
49828;SDS011;35723;51.194;5.112;2023-09-19T02:05:29;17.67;;;2.70;;
49828;SDS011;35723;51.194;5.112;2023-09-19T02:07:55;15.30;;;2.97;;
49828;SDS011;35723;51.194;5.112;2023-09-19T02:10:22;18.92;;;2.83;;
49828;SDS011;35723;51.194;5.112;2023-09-19T02:12:48;14.85;;;2.75;;
49828;SDS011;35723;51.194;5.112;2023-09-19T02:15:15;18.15;;;2.85;;
49828;SDS011;35723;51.194;5.112;2023-09-19T02:17:41;17.25;;;2.80;;
49828;SDS011;35723;51.194;5.112;2023-09-19T02:20:11;14.68;;;2.55;;
49828;SDS011;35723;51.194;5.112;2023-09-19T02:22:40;15.88;;;2.95;;
49828;SDS011;35723;51.194;5.112;2023-09-19T02:25:06;16.05;;;2.55;;
49828;SDS011;35723;51.194;5.112;2023-09-19T02:27:33;20.17;;;2.83;;
49828;SDS011;35723;51.194;5.112;2023-09-19T02:29:59;13.80;;;2.40;;
49828;SDS011;35723;51.194;5.112;2023-09-19T02:32:27;18.35;;;2.95;;
49828;SDS011;35723;51.194;5.112;2023-09-19T02:34:55;18.88;;;3.53;;
49828;SDS011;35723;51.194;5.112;2023-09-19T02:37:20;20.00;;;2.90;;
49828;SDS011;35723;51.194;5.112;2023-09-19T02:39:46;20.33;;;3.08;;
49828;SDS011;35723;51.194;5.112;2023-09-19T02:42:12;11.52;;;2.45;;
49828;SDS011;35723;51.194;5.112;2023-09-19T02:44:38;17.40;;;3.10;;
49828;SDS011;35723;51.194;5.112;2023-09-19T02:47:05;15.05;;;3.90;;
49828;SDS011;35723;51.194;5.112;2023-09-19T02:49:30;18.85;;;2.80;;
49828;SDS011;35723;51.194;5.112;2023-09-19T02:51:56;19.40;;;2.78;;
49828;SDS011;35723;51.194;5.112;2023-09-19T02:54:23;20.95;;;2.95;;
49828;SDS011;35723;51.194;5.112;2023-09-19T02:56:49;14.35;;;3.00;;
49828;SDS011;35723;51.194;5.112;2023-09-19T02:59:15;20.35;;;2.97;;
49828;SDS011;35723;51.194;5.112;2023-09-19T03:01:43;15.98;;;3.15;;
49828;SDS011;35723;51.194;5.112;2023-09-19T03:04:09;17.02;;;2.65;;
49828;SDS011;35723;51.194;5.112;2023-09-19T03:06:36;19.88;;;3.42;;
49828;SDS011;35723;51.194;5.112;2023-09-19T03:09:03;18.27;;;2.92;;
49828;SDS011;35723;51.194;5.112;2023-09-19T03:11:31;15.10;;;2.70;;
49828;SDS011;35723;51.194;5.112;2023-09-19T03:13:58;15.68;;;2.97;;
49828;SDS011;35723;51.194;5.112;2023-09-19T03:16:23;20.10;;;3.33;;
49828;SDS011;35723;51.194;5.112;2023-09-19T03:18:50;17.48;;;3.05;;
49828;SDS011;35723;51.194;5.112;2023-09-19T03:21:16;17.15;;;3.00;;
49828;SDS011;35723;51.194;5.112;2023-09-19T03:23:44;18.48;;;3.10;;
49828;SDS011;35723;51.194;5.112;2023-09-19T03:26:10;19.95;;;3.13;;
49828;SDS011;35723;51.194;5.112;2023-09-19T03:28:41;18.05;;;2.97;;
49828;SDS011;35723;51.194;5.112;2023-09-19T03:31:08;15.15;;;2.92;;
49828;SDS011;35723;51.194;5.112;2023-09-19T03:33:34;18.17;;;2.85;;
49828;SDS011;35723;51.194;5.112;2023-09-19T03:36:00;21.63;;;2.95;;
49828;SDS011;35723;51.194;5.112;2023-09-19T03:38:29;14.95;;;2.65;;
49828;SDS011;35723;51.194;5.112;2023-09-19T03:40:55;18.33;;;3.13;;
49828;SDS011;35723;51.194;5.112;2023-09-19T03:43:21;17.50;;;3.17;;
49828;SDS011;35723;51.194;5.112;2023-09-19T03:45:46;19.45;;;3.05;;
49828;SDS011;35723;51.194;5.112;2023-09-19T03:48:12;19.23;;;2.97;;
49828;SDS011;35723;51.194;5.112;2023-09-19T03:50:38;19.55;;;3.00;;
49828;SDS011;35723;51.194;5.112;2023-09-19T03:53:04;20.73;;;3.15;;
49828;SDS011;35723;51.194;5.112;2023-09-19T03:55:32;23.67;;;3.20;;
49828;SDS011;35723;51.194;5.112;2023-09-19T03:58:00;19.10;;;2.97;;
49828;SDS011;35723;51.194;5.112;2023-09-19T04:00:26;19.00;;;3.10;;
49828;SDS011;35723;51.194;5.112;2023-09-19T04:02:52;17.38;;;3.28;;
49828;SDS011;35723;51.194;5.112;2023-09-19T04:05:18;15.93;;;2.95;;
49828;SDS011;35723;51.194;5.112;2023-09-19T04:07:44;18.92;;;3.00;;
49828;SDS011;35723;51.194;5.112;2023-09-19T04:10:10;17.15;;;2.88;;
49828;SDS011;35723;51.194;5.112;2023-09-19T04:12:37;20.85;;;3.17;;
49828;SDS011;35723;51.194;5.112;2023-09-19T04:15:04;19.63;;;3.25;;
49828;SDS011;35723;51.194;5.112;2023-09-19T04:17:30;17.95;;;3.03;;
49828;SDS011;35723;51.194;5.112;2023-09-19T04:19:58;20.88;;;3.30;;
49828;SDS011;35723;51.194;5.112;2023-09-19T04:22:24;17.35;;;3.42;;
49828;SDS011;35723;51.194;5.112;2023-09-19T04:24:49;20.10;;;3.33;;
49828;SDS011;35723;51.194;5.112;2023-09-19T04:27:15;20.00;;;3.05;;
49828;SDS011;35723;51.194;5.112;2023-09-19T04:29:41;19.20;;;2.92;;
49828;SDS011;35723;51.194;5.112;2023-09-19T04:32:07;20.40;;;3.30;;
49828;SDS011;35723;51.194;5.112;2023-09-19T04:34:34;18.42;;;3.20;;
49828;SDS011;35723;51.194;5.112;2023-09-19T04:37:00;18.50;;;3.08;;
49828;SDS011;35723;51.194;5.112;2023-09-19T04:39:27;18.80;;;2.95;;
49828;SDS011;35723;51.194;5.112;2023-09-19T04:41:53;17.92;;;3.42;;
49828;SDS011;35723;51.194;5.112;2023-09-19T04:44:19;23.63;;;3.15;;
49828;SDS011;35723;51.194;5.112;2023-09-19T04:46:45;19.67;;;3.35;;
49828;SDS011;35723;51.194;5.112;2023-09-19T04:49:12;15.85;;;2.78;;
49828;SDS011;35723;51.194;5.112;2023-09-19T04:51:38;20.27;;;3.33;;
49828;SDS011;35723;51.194;5.112;2023-09-19T04:54:04;15.23;;;2.83;;
49828;SDS011;35723;51.194;5.112;2023-09-19T04:56:30;16.38;;;3.00;;
49828;SDS011;35723;51.194;5.112;2023-09-19T04:58:57;20.60;;;3.72;;
49828;SDS011;35723;51.194;5.112;2023-09-19T05:01:23;21.55;;;3.28;;
49828;SDS011;35723;51.194;5.112;2023-09-19T05:03:52;18.70;;;3.03;;
49828;SDS011;35723;51.194;5.112;2023-09-19T05:06:21;18.48;;;2.97;;
49828;SDS011;35723;51.194;5.112;2023-09-19T05:08:47;21.88;;;3.75;;
49828;SDS011;35723;51.194;5.112;2023-09-19T05:11:16;15.48;;;2.97;;
49828;SDS011;35723;51.194;5.112;2023-09-19T05:13:43;16.63;;;3.28;;
49828;SDS011;35723;51.194;5.112;2023-09-19T05:16:08;22.13;;;3.50;;
49828;SDS011;35723;51.194;5.112;2023-09-19T05:18:35;16.98;;;3.50;;
49828;SDS011;35723;51.194;5.112;2023-09-19T05:21:03;19.40;;;3.45;;
49828;SDS011;35723;51.194;5.112;2023-09-19T05:23:29;19.48;;;3.28;;
49828;SDS011;35723;51.194;5.112;2023-09-19T05:25:56;20.13;;;3.10;;
49828;SDS011;35723;51.194;5.112;2023-09-19T05:28:23;18.00;;;3.15;;
49828;SDS011;35723;51.194;5.112;2023-09-19T05:30:49;20.17;;;3.20;;
49828;SDS011;35723;51.194;5.112;2023-09-19T05:33:15;18.23;;;3.00;;
49828;SDS011;35723;51.194;5.112;2023-09-19T05:35:40;20.85;;;3.30;;
49828;SDS011;35723;51.194;5.112;2023-09-19T05:38:06;18.35;;;3.22;;
49828;SDS011;35723;51.194;5.112;2023-09-19T05:40:34;18.13;;;3.10;;
49828;SDS011;35723;51.194;5.112;2023-09-19T05:43:00;17.00;;;2.92;;
49828;SDS011;35723;51.194;5.112;2023-09-19T05:45:28;16.90;;;3.10;;
49828;SDS011;35723;51.194;5.112;2023-09-19T05:47:54;16.83;;;3.22;;
49828;SDS011;35723;51.194;5.112;2023-09-19T05:50:29;16.88;;;3.20;;
49828;SDS011;35723;51.194;5.112;2023-09-19T05:52:55;19.20;;;3.35;;
49828;SDS011;35723;51.194;5.112;2023-09-19T05:55:23;21.17;;;3.60;;
49828;SDS011;35723;51.194;5.112;2023-09-19T05:57:51;18.27;;;3.28;;
49828;SDS011;35723;51.194;5.112;2023-09-19T06:00:23;16.85;;;2.80;;
49828;SDS011;35723;51.194;5.112;2023-09-19T06:02:51;19.27;;;3.20;;
49828;SDS011;35723;51.194;5.112;2023-09-19T06:05:17;20.42;;;3.38;;
49828;SDS011;35723;51.194;5.112;2023-09-19T06:07:44;21.98;;;3.08;;
49828;SDS011;35723;51.194;5.112;2023-09-19T06:10:09;18.65;;;3.53;;
49828;SDS011;35723;51.194;5.112;2023-09-19T06:12:41;21.88;;;3.33;;
49828;SDS011;35723;51.194;5.112;2023-09-19T06:15:10;20.83;;;3.03;;
49828;SDS011;35723;51.194;5.112;2023-09-19T06:17:50;19.92;;;2.78;;
49828;SDS011;35723;51.194;5.112;2023-09-19T06:20:20;19.63;;;3.50;;
49828;SDS011;35723;51.194;5.112;2023-09-19T06:22:47;19.40;;;3.47;;
49828;SDS011;35723;51.194;5.112;2023-09-19T06:25:14;21.20;;;3.63;;
49828;SDS011;35723;51.194;5.112;2023-09-19T06:27:47;16.25;;;3.13;;
49828;SDS011;35723;51.194;5.112;2023-09-19T06:30:20;21.50;;;3.08;;
49828;SDS011;35723;51.194;5.112;2023-09-19T06:32:48;22.05;;;2.90;;
49828;SDS011;35723;51.194;5.112;2023-09-19T06:35:15;19.40;;;3.67;;
49828;SDS011;35723;51.194;5.112;2023-09-19T06:37:42;20.90;;;3.03;;
49828;SDS011;35723;51.194;5.112;2023-09-19T06:40:11;19.15;;;2.97;;
49828;SDS011;35723;51.194;5.112;2023-09-19T06:42:42;18.20;;;3.15;;
49828;SDS011;35723;51.194;5.112;2023-09-19T06:45:10;16.83;;;3.00;;
49828;SDS011;35723;51.194;5.112;2023-09-19T06:47:43;19.60;;;2.90;;
49828;SDS011;35723;51.194;5.112;2023-09-19T06:50:10;19.80;;;3.25;;
49828;SDS011;35723;51.194;5.112;2023-09-19T06:52:39;19.67;;;3.35;;
49828;SDS011;35723;51.194;5.112;2023-09-19T06:55:08;18.63;;;2.80;;
49828;SDS011;35723;51.194;5.112;2023-09-19T06:57:36;17.27;;;3.03;;
49828;SDS011;35723;51.194;5.112;2023-09-19T07:00:02;19.48;;;3.08;;
49828;SDS011;35723;51.194;5.112;2023-09-19T07:02:34;19.52;;;3.28;;
49828;SDS011;35723;51.194;5.112;2023-09-19T07:05:00;17.67;;;3.00;;
49828;SDS011;35723;51.194;5.112;2023-09-19T07:07:25;19.60;;;3.10;;
49828;SDS011;35723;51.194;5.112;2023-09-19T07:09:51;20.73;;;3.08;;
49828;SDS011;35723;51.194;5.112;2023-09-19T07:12:19;19.70;;;3.20;;
49828;SDS011;35723;51.194;5.112;2023-09-19T07:14:44;16.63;;;2.90;;
49828;SDS011;35723;51.194;5.112;2023-09-19T07:17:10;20.38;;;3.10;;
49828;SDS011;35723;51.194;5.112;2023-09-19T07:19:36;18.38;;;3.35;;
49828;SDS011;35723;51.194;5.112;2023-09-19T07:22:02;19.92;;;3.00;;
49828;SDS011;35723;51.194;5.112;2023-09-19T07:24:28;18.17;;;2.88;;
49828;SDS011;35723;51.194;5.112;2023-09-19T07:26:54;16.15;;;2.70;;
49828;SDS011;35723;51.194;5.112;2023-09-19T07:29:19;15.98;;;2.90;;
49828;SDS011;35723;51.194;5.112;2023-09-19T07:31:45;18.23;;;3.00;;
49828;SDS011;35723;51.194;5.112;2023-09-19T07:34:11;19.33;;;3.10;;
49828;SDS011;35723;51.194;5.112;2023-09-19T07:36:37;23.70;;;3.90;;
49828;SDS011;35723;51.194;5.112;2023-09-19T07:39:03;16.05;;;3.17;;
49828;SDS011;35723;51.194;5.112;2023-09-19T07:41:32;21.58;;;3.17;;
49828;SDS011;35723;51.194;5.112;2023-09-19T07:43:58;16.77;;;2.70;;
49828;SDS011;35723;51.194;5.112;2023-09-19T07:46:24;18.15;;;2.90;;
49828;SDS011;35723;51.194;5.112;2023-09-19T07:48:51;19.73;;;3.28;;
49828;SDS011;35723;51.194;5.112;2023-09-19T07:51:16;21.48;;;3.17;;
49828;SDS011;35723;51.194;5.112;2023-09-19T07:53:42;19.80;;;3.20;;
49828;SDS011;35723;51.194;5.112;2023-09-19T07:56:09;21.48;;;3.38;;
49828;SDS011;35723;51.194;5.112;2023-09-19T07:58:35;20.13;;;3.15;;
49828;SDS011;35723;51.194;5.112;2023-09-19T08:01:05;22.08;;;3.22;;
49828;SDS011;35723;51.194;5.112;2023-09-19T08:03:34;20.75;;;2.95;;
49828;SDS011;35723;51.194;5.112;2023-09-19T08:06:05;17.83;;;3.03;;
49828;SDS011;35723;51.194;5.112;2023-09-19T08:08:32;21.88;;;3.28;;
49828;SDS011;35723;51.194;5.112;2023-09-19T08:10:59;20.63;;;2.90;;
49828;SDS011;35723;51.194;5.112;2023-09-19T08:13:26;19.05;;;3.25;;
49828;SDS011;35723;51.194;5.112;2023-09-19T08:15:52;18.77;;;3.03;;
49828;SDS011;35723;51.194;5.112;2023-09-19T08:18:18;21.20;;;3.33;;
49828;SDS011;35723;51.194;5.112;2023-09-19T08:20:48;19.00;;;3.05;;
49828;SDS011;35723;51.194;5.112;2023-09-19T08:23:15;15.38;;;3.00;;
49828;SDS011;35723;51.194;5.112;2023-09-19T08:25:43;19.55;;;3.05;;
49828;SDS011;35723;51.194;5.112;2023-09-19T08:28:09;17.60;;;3.22;;
49828;SDS011;35723;51.194;5.112;2023-09-19T08:30:37;15.80;;;2.78;;
49828;SDS011;35723;51.194;5.112;2023-09-19T08:33:05;18.38;;;3.13;;
49828;SDS011;35723;51.194;5.112;2023-09-19T08:35:31;18.60;;;3.00;;
49828;SDS011;35723;51.194;5.112;2023-09-19T08:37:57;18.42;;;2.92;;
49828;SDS011;35723;51.194;5.112;2023-09-19T08:40:25;23.65;;;2.92;;
49828;SDS011;35723;51.194;5.112;2023-09-19T08:42:56;16.80;;;3.03;;
49828;SDS011;35723;51.194;5.112;2023-09-19T08:45:25;19.50;;;3.15;;
49828;SDS011;35723;51.194;5.112;2023-09-19T08:50:51;18.92;;;3.13;;
49828;SDS011;35723;51.194;5.112;2023-09-19T08:54:03;18.85;;;3.00;;
49828;SDS011;35723;51.194;5.112;2023-09-19T08:56:11;17.75;;;3.35;;
49828;SDS011;35723;51.194;5.112;2023-09-19T08:58:44;21.73;;;3.70;;
49828;SDS011;35723;51.194;5.112;2023-09-19T09:01:19;16.58;;;3.28;;
49828;SDS011;35723;51.194;5.112;2023-09-19T09:03:55;15.52;;;2.78;;
49828;SDS011;35723;51.194;5.112;2023-09-19T09:06:22;18.65;;;3.08;;
49828;SDS011;35723;51.194;5.112;2023-09-19T09:08:52;16.35;;;2.97;;
49828;SDS011;35723;51.194;5.112;2023-09-19T09:11:19;16.15;;;2.92;;
49828;SDS011;35723;51.194;5.112;2023-09-19T09:13:47;17.60;;;3.15;;
49828;SDS011;35723;51.194;5.112;2023-09-19T09:16:13;23.42;;;3.33;;
49828;SDS011;35723;51.194;5.112;2023-09-19T09:18:43;16.00;;;2.78;;
49828;SDS011;35723;51.194;5.112;2023-09-19T09:21:10;16.23;;;2.90;;
49828;SDS011;35723;51.194;5.112;2023-09-19T09:23:36;21.98;;;3.55;;
49828;SDS011;35723;51.194;5.112;2023-09-19T09:26:02;19.40;;;3.50;;
49828;SDS011;35723;51.194;5.112;2023-09-19T09:28:28;16.02;;;3.08;;
49828;SDS011;35723;51.194;5.112;2023-09-19T09:30:56;20.10;;;3.13;;
49828;SDS011;35723;51.194;5.112;2023-09-19T09:33:33;20.58;;;3.47;;
49828;SDS011;35723;51.194;5.112;2023-09-19T09:35:59;14.55;;;2.88;;
49828;SDS011;35723;51.194;5.112;2023-09-19T09:38:28;17.95;;;3.03;;
49828;SDS011;35723;51.194;5.112;2023-09-19T09:40:58;19.23;;;3.22;;
49828;SDS011;35723;51.194;5.112;2023-09-19T09:43:32;18.63;;;2.90;;
49828;SDS011;35723;51.194;5.112;2023-09-19T09:48:56;19.98;;;3.53;;
49828;SDS011;35723;51.194;5.112;2023-09-19T09:52:02;17.75;;;2.92;;
49828;SDS011;35723;51.194;5.112;2023-09-19T09:54:58;13.05;;;2.90;;
49828;SDS011;35723;51.194;5.112;2023-09-19T09:57:30;21.90;;;3.22;;
49828;SDS011;35723;51.194;5.112;2023-09-19T09:59:57;13.88;;;2.80;;
49828;SDS011;35723;51.194;5.112;2023-09-19T10:02:37;20.02;;;2.85;;
49828;SDS011;35723;51.194;5.112;2023-09-19T10:05:11;16.38;;;2.83;;
49828;SDS011;35723;51.194;5.112;2023-09-19T10:07:37;21.27;;;3.33;;
49828;SDS011;35723;51.194;5.112;2023-09-19T10:10:06;12.82;;;3.00;;
49828;SDS011;35723;51.194;5.112;2023-09-19T10:12:42;18.13;;;2.67;;
49828;SDS011;35723;51.194;5.112;2023-09-19T10:15:10;18.27;;;2.90;;
49828;SDS011;35723;51.194;5.112;2023-09-19T10:17:42;17.83;;;2.80;;
49828;SDS011;35723;51.194;5.112;2023-09-19T10:20:09;15.30;;;2.65;;
49828;SDS011;35723;51.194;5.112;2023-09-19T10:23:08;18.85;;;3.03;;
49828;SDS011;35723;51.194;5.112;2023-09-19T10:25:42;15.32;;;2.72;;
49828;SDS011;35723;51.194;5.112;2023-09-19T10:28:11;15.93;;;2.30;;
49828;SDS011;35723;51.194;5.112;2023-09-19T10:30:40;16.45;;;2.67;;
49828;SDS011;35723;51.194;5.112;2023-09-19T10:33:21;15.23;;;2.55;;
49828;SDS011;35723;51.194;5.112;2023-09-19T10:35:51;19.38;;;2.80;;
49828;SDS011;35723;51.194;5.112;2023-09-19T10:38:19;16.75;;;2.80;;
49828;SDS011;35723;51.194;5.112;2023-09-19T10:40:50;11.00;;;2.30;;
49828;SDS011;35723;51.194;5.112;2023-09-19T10:43:18;20.05;;;2.97;;
49828;SDS011;35723;51.194;5.112;2023-09-19T10:45:46;17.08;;;2.75;;
49828;SDS011;35723;51.194;5.112;2023-09-19T10:48:15;14.55;;;2.70;;
49828;SDS011;35723;51.194;5.112;2023-09-19T10:50:46;14.50;;;2.80;;
49828;SDS011;35723;51.194;5.112;2023-09-19T10:53:15;12.23;;;2.50;;
49828;SDS011;35723;51.194;5.112;2023-09-19T10:55:47;11.85;;;2.28;;
49828;SDS011;35723;51.194;5.112;2023-09-19T10:58:24;11.07;;;2.65;;
49828;SDS011;35723;51.194;5.112;2023-09-19T11:00:57;11.52;;;2.05;;
49828;SDS011;35723;51.194;5.112;2023-09-19T11:03:27;15.63;;;2.53;;
49828;SDS011;35723;51.194;5.112;2023-09-19T11:30:50;16.10;;;1.98;;
49828;SDS011;35723;51.194;5.112;2023-09-19T11:33:20;10.25;;;1.80;;
49828;SDS011;35723;51.194;5.112;2023-09-19T11:36:04;6.97;;;1.60;;
49828;SDS011;35723;51.194;5.112;2023-09-19T11:48:58;13.63;;;1.77;;
49828;SDS011;35723;51.194;5.112;2023-09-19T11:51:39;8.20;;;1.83;;
49828;SDS011;35723;51.194;5.112;2023-09-19T11:54:10;12.00;;;1.90;;
49828;SDS011;35723;51.194;5.112;2023-09-19T11:56:53;11.07;;;1.80;;
49828;SDS011;35723;51.194;5.112;2023-09-19T11:59:19;9.23;;;1.90;;
49828;SDS011;35723;51.194;5.112;2023-09-19T12:01:52;6.25;;;1.48;;
49828;SDS011;35723;51.194;5.112;2023-09-19T12:04:31;11.55;;;1.83;;
49828;SDS011;35723;51.194;5.112;2023-09-19T12:07:02;5.40;;;1.45;;
49828;SDS011;35723;51.194;5.112;2023-09-19T12:09:41;13.02;;;1.52;;
49828;SDS011;35723;51.194;5.112;2023-09-19T12:12:20;11.35;;;1.80;;
49828;SDS011;35723;51.194;5.112;2023-09-19T12:14:58;8.13;;;1.45;;
49828;SDS011;35723;51.194;5.112;2023-09-19T12:17:37;6.72;;;1.38;;
49828;SDS011;35723;51.194;5.112;2023-09-19T12:20:07;8.13;;;1.63;;
49828;SDS011;35723;51.194;5.112;2023-09-19T12:22:42;9.20;;;1.65;;
49828;SDS011;35723;51.194;5.112;2023-09-19T12:25:09;11.43;;;1.73;;
49828;SDS011;35723;51.194;5.112;2023-09-19T12:27:42;7.35;;;1.40;;
49828;SDS011;35723;51.194;5.112;2023-09-19T12:30:09;10.70;;;1.50;;
49828;SDS011;35723;51.194;5.112;2023-09-19T12:32:39;12.52;;;1.80;;
49828;SDS011;35723;51.194;5.112;2023-09-19T12:35:06;8.23;;;1.70;;
49828;SDS011;35723;51.194;5.112;2023-09-19T12:37:44;8.68;;;1.45;;
49828;SDS011;35723;51.194;5.112;2023-09-19T12:40:18;8.88;;;1.25;;
49828;SDS011;35723;51.194;5.112;2023-09-19T12:42:50;11.88;;;1.65;;
49828;SDS011;35723;51.194;5.112;2023-09-19T12:45:18;6.32;;;1.40;;
49828;SDS011;35723;51.194;5.112;2023-09-19T12:53:28;14.85;;;1.80;;
49828;SDS011;35723;51.194;5.112;2023-09-19T12:55:58;10.52;;;2.03;;
49828;SDS011;35723;51.194;5.112;2023-09-19T12:58:24;8.13;;;1.60;;
49828;SDS011;35723;51.194;5.112;2023-09-19T13:00:50;7.13;;;1.20;;
49828;SDS011;35723;51.194;5.112;2023-09-19T13:08:20;8.55;;;1.50;;
49828;SDS011;35723;51.194;5.112;2023-09-19T13:11:01;10.25;;;1.67;;
49828;SDS011;35723;51.194;5.112;2023-09-19T13:16:10;7.40;;;1.70;;
49828;SDS011;35723;51.194;5.112;2023-09-19T13:18:46;6.93;;;1.40;;
49828;SDS011;35723;51.194;5.112;2023-09-19T13:21:27;6.18;;;1.30;;
49828;SDS011;35723;51.194;5.112;2023-09-19T13:24:23;5.00;;;1.50;;
49828;SDS011;35723;51.194;5.112;2023-09-19T13:26:55;10.10;;;1.73;;
49828;SDS011;35723;51.194;5.112;2023-09-19T13:29:25;8.02;;;1.48;;
49828;SDS011;35723;51.194;5.112;2023-09-19T13:31:57;6.40;;;1.48;;
49828;SDS011;35723;51.194;5.112;2023-09-19T13:34:27;9.50;;;1.65;;
49828;SDS011;35723;51.194;5.112;2023-09-19T13:36:54;5.95;;;1.35;;
49828;SDS011;35723;51.194;5.112;2023-09-19T13:39:20;9.15;;;1.63;;
49828;SDS011;35723;51.194;5.112;2023-09-19T13:41:46;9.45;;;1.40;;
49828;SDS011;35723;51.194;5.112;2023-09-19T13:44:12;11.25;;;1.95;;
49828;SDS011;35723;51.194;5.112;2023-09-19T13:46:39;8.10;;;1.50;;
49828;SDS011;35723;51.194;5.112;2023-09-19T13:49:05;8.98;;;1.63;;
49828;SDS011;35723;51.194;5.112;2023-09-19T13:51:31;7.63;;;1.52;;
49828;SDS011;35723;51.194;5.112;2023-09-19T13:53:57;9.13;;;1.63;;
49828;SDS011;35723;51.194;5.112;2023-09-19T13:56:24;9.52;;;1.60;;
49828;SDS011;35723;51.194;5.112;2023-09-19T13:58:53;5.47;;;1.35;;
49828;SDS011;35723;51.194;5.112;2023-09-19T14:01:19;9.80;;;1.52;;
49828;SDS011;35723;51.194;5.112;2023-09-19T14:03:45;9.63;;;1.88;;
49828;SDS011;35723;51.194;5.112;2023-09-19T14:06:16;6.68;;;1.83;;
49828;SDS011;35723;51.194;5.112;2023-09-19T14:08:43;7.63;;;1.50;;
49828;SDS011;35723;51.194;5.112;2023-09-19T14:11:12;10.55;;;1.58;;
49828;SDS011;35723;51.194;5.112;2023-09-19T14:13:39;9.40;;;2.00;;
49828;SDS011;35723;51.194;5.112;2023-09-19T14:16:05;9.40;;;1.90;;
49828;SDS011;35723;51.194;5.112;2023-09-19T14:18:34;7.13;;;1.45;;
49828;SDS011;35723;51.194;5.112;2023-09-19T14:21:04;8.10;;;1.50;;
49828;SDS011;35723;51.194;5.112;2023-09-19T14:23:34;10.55;;;1.50;;
49828;SDS011;35723;51.194;5.112;2023-09-19T14:26:01;5.90;;;1.60;;
49828;SDS011;35723;51.194;5.112;2023-09-19T14:28:27;10.70;;;1.50;;
49828;SDS011;35723;51.194;5.112;2023-09-19T14:30:54;6.72;;;1.48;;
49828;SDS011;35723;51.194;5.112;2023-09-19T14:33:20;10.35;;;2.00;;
49828;SDS011;35723;51.194;5.112;2023-09-19T14:35:46;11.27;;;1.48;;
49828;SDS011;35723;51.194;5.112;2023-09-19T14:38:11;7.18;;;1.48;;
49828;SDS011;35723;51.194;5.112;2023-09-19T14:40:37;14.63;;;2.13;;
49828;SDS011;35723;51.194;5.112;2023-09-19T14:43:04;10.23;;;1.75;;
49828;SDS011;35723;51.194;5.112;2023-09-19T14:45:30;10.05;;;1.92;;
49828;SDS011;35723;51.194;5.112;2023-09-19T14:47:56;10.15;;;1.55;;
49828;SDS011;35723;51.194;5.112;2023-09-19T14:50:22;9.77;;;2.00;;
49828;SDS011;35723;51.194;5.112;2023-09-19T14:52:47;10.38;;;2.10;;
49828;SDS011;35723;51.194;5.112;2023-09-19T14:55:16;11.75;;;1.90;;
49828;SDS011;35723;51.194;5.112;2023-09-19T14:57:42;8.02;;;1.88;;
49828;SDS011;35723;51.194;5.112;2023-09-19T15:00:11;6.80;;;1.55;;
49828;SDS011;35723;51.194;5.112;2023-09-19T15:02:38;6.18;;;1.65;;
49828;SDS011;35723;51.194;5.112;2023-09-19T15:05:05;9.73;;;1.70;;
49828;SDS011;35723;51.194;5.112;2023-09-19T15:07:33;8.07;;;2.00;;
49828;SDS011;35723;51.194;5.112;2023-09-19T15:10:01;9.15;;;1.80;;
49828;SDS011;35723;51.194;5.112;2023-09-19T15:12:29;10.27;;;1.80;;
49828;SDS011;35723;51.194;5.112;2023-09-19T15:14:55;5.95;;;1.58;;
49828;SDS011;35723;51.194;5.112;2023-09-19T15:17:21;9.70;;;1.83;;
49828;SDS011;35723;51.194;5.112;2023-09-19T15:19:49;14.02;;;2.00;;
49828;SDS011;35723;51.194;5.112;2023-09-19T15:22:15;7.22;;;1.45;;
49828;SDS011;35723;51.194;5.112;2023-09-19T15:24:40;11.82;;;1.63;;
49828;SDS011;35723;51.194;5.112;2023-09-19T15:27:06;9.80;;;1.88;;
49828;SDS011;35723;51.194;5.112;2023-09-19T15:29:31;10.00;;;1.98;;
49828;SDS011;35723;51.194;5.112;2023-09-19T15:31:57;8.55;;;1.80;;
49828;SDS011;35723;51.194;5.112;2023-09-19T15:34:26;7.72;;;1.90;;
49828;SDS011;35723;51.194;5.112;2023-09-19T15:36:53;7.72;;;1.98;;
49828;SDS011;35723;51.194;5.112;2023-09-19T15:39:19;8.57;;;1.77;;
49828;SDS011;35723;51.194;5.112;2023-09-19T15:41:47;11.38;;;2.05;;
49828;SDS011;35723;51.194;5.112;2023-09-19T15:44:16;6.15;;;1.77;;
49828;SDS011;35723;51.194;5.112;2023-09-19T15:46:45;10.65;;;1.90;;
49828;SDS011;35723;51.194;5.112;2023-09-19T15:49:11;13.55;;;2.20;;
49828;SDS011;35723;51.194;5.112;2023-09-19T15:51:38;10.77;;;1.85;;
49828;SDS011;35723;51.194;5.112;2023-09-19T15:54:12;13.10;;;2.08;;
49828;SDS011;35723;51.194;5.112;2023-09-19T15:56:39;11.60;;;2.00;;